Alamogordo White Sands Regional Airport
KALM : now visible

Airfield :











YOU CAN JOIN US ON...

 
LOGIN :

Register | Disclaimer

   EN    FR    IT 

 









Legend :    VFR   Marginal VFR   IFR   Intensive IFR   Very Intensive IFR
Visi :
Ceiling :
>= 8 km
>= 3000ft
5 to 8 km
1000 to 3000 ft
1500m to 5 km
500 to 1000 ft
800 to 1500m
200 to 500 ft
< 800m
< 200 ft
Symbols :   Thunderstorms  Fog  Heavy snow  Heavy precipitations  Wind > 20 kt






- Airport Elevation : 4200 ft
- IATA code : ALM


KALM - Alamogordo White Sands Regional

CURRENT METAR :
  • 011435Z AUTO 10004KT 10SM FEW075 M05/M08 A3013 RMK AO2

EXPIRED METARs :
  • 011415Z AUTO 00000KT 10SM CLR M05/M07 A3014 RMK AO2
  • 011355Z AUTO 14003KT 10SM CLR M05/M08 A3013 RMK AO2
  • 011335Z AUTO 23005KT 10SM SCT039 SCT047 M03/M08 A3013 RMK AO2
  • 011315Z AUTO 01003KT 10SM FEW036 SCT042 SCT050 M03/M08 A3011 RMK AO2
  • 011255Z AUTO 33006KT 10SM BKN037 BKN049 BKN055 M03/M08 A3010 RMK AO2
  • 011235Z AUTO 35004KT 10SM SCT037 BKN050 BKN060 M03/M08 A3008 RMK AO2
  • 011215Z AUTO 00000KT 10SM FEW034 SCT048 BKN060 M05/M08 A3011 RMK AO2
  • 011155Z AUTO 11004KT 10SM FEW036 SCT042 BKN060 M05/M08 A3011 RMK AO2

TAF N/A
KZAB FIR / North America



MET'MAP, your aeronautical weather chart ! - Copyright ORBIFLY December 2007 - Disclaimer

ORBIFLY MET'MAP TEAM :

Programming & Development : Alexandra Zaïnal
Original concept : Baudouin d'Aumeries
Technical & hardware support : Manuel Goepfert
Assistance : Marc-Olivier Méhu




SOURCES & CREDITS :

   NOAA       Earth
Advisory